sensor_id;sensor_type;location;lat;lon;timestamp;pressure;altitude;pressure_sealevel;temperature
20103;BMP180;10210;52.284;9.892;2023-12-14T00:01:47;99608.00;;;10.40
20103;BMP180;10210;52.284;9.892;2023-12-14T00:04:14;99615.00;;;10.30
20103;BMP180;10210;52.284;9.892;2023-12-14T00:06:39;99608.00;;;10.30
20103;BMP180;10210;52.284;9.892;2023-12-14T00:09:05;99622.00;;;10.30
20103;BMP180;10210;52.284;9.892;2023-12-14T00:11:30;99619.00;;;10.20
20103;BMP180;10210;52.284;9.892;2023-12-14T00:13:56;99632.00;;;10.20
20103;BMP180;10210;52.284;9.892;2023-12-14T00:16:22;99628.00;;;10.20
20103;BMP180;10210;52.284;9.892;2023-12-14T00:18:47;99628.00;;;10.20
20103;BMP180;10210;52.284;9.892;2023-12-14T00:21:13;99637.00;;;10.20
20103;BMP180;10210;52.284;9.892;2023-12-14T00:23:39;99648.00;;;10.20
20103;BMP180;10210;52.284;9.892;2023-12-14T00:26:04;99644.00;;;10.20
20103;BMP180;10210;52.284;9.892;2023-12-14T00:28:30;99647.00;;;10.20
20103;BMP180;10210;52.284;9.892;2023-12-14T00:30:56;99663.00;;;10.10
20103;BMP180;10210;52.284;9.892;2023-12-14T00:33:24;99659.00;;;10.10
20103;BMP180;10210;52.284;9.892;2023-12-14T00:35:51;99666.00;;;10.10
20103;BMP180;10210;52.284;9.892;2023-12-14T00:38:16;99656.00;;;10.20
20103;BMP180;10210;52.284;9.892;2023-12-14T00:40:42;99652.00;;;10.20
20103;BMP180;10210;52.284;9.892;2023-12-14T00:43:08;99672.00;;;10.20
20103;BMP180;10210;52.284;9.892;2023-12-14T00:45:33;99665.00;;;10.20
20103;BMP180;10210;52.284;9.892;2023-12-14T00:47:59;99678.00;;;10.20
20103;BMP180;10210;52.284;9.892;2023-12-14T00:50:24;99693.00;;;10.20
20103;BMP180;10210;52.284;9.892;2023-12-14T00:52:50;99692.00;;;10.20
20103;BMP180;10210;52.284;9.892;2023-12-14T00:55:16;99689.00;;;10.20
20103;BMP180;10210;52.284;9.892;2023-12-14T00:57:41;99684.00;;;10.20
20103;BMP180;10210;52.284;9.892;2023-12-14T01:00:08;99705.00;;;10.20
20103;BMP180;10210;52.284;9.892;2023-12-14T01:02:36;99712.00;;;10.20
20103;BMP180;10210;52.284;9.892;2023-12-14T01:05:02;99707.00;;;10.20
20103;BMP180;10210;52.284;9.892;2023-12-14T01:07:27;99717.00;;;10.20
20103;BMP180;10210;52.284;9.892;2023-12-14T01:09:53;99718.00;;;10.10
20103;BMP180;10210;52.284;9.892;2023-12-14T01:12:18;99725.00;;;10.10
20103;BMP180;10210;52.284;9.892;2023-12-14T01:14:44;99745.00;;;10.10
20103;BMP180;10210;52.284;9.892;2023-12-14T01:17:10;99741.00;;;10.10
20103;BMP180;10210;52.284;9.892;2023-12-14T01:19:35;99752.00;;;10.00
20103;BMP180;10210;52.284;9.892;2023-12-14T01:22:01;99744.00;;;10.00
20103;BMP180;10210;52.284;9.892;2023-12-14T01:24:26;99759.00;;;10.00
20103;BMP180;10210;52.284;9.892;2023-12-14T01:26:52;99757.00;;;10.00
20103;BMP180;10210;52.284;9.892;2023-12-14T01:29:17;99766.00;;;9.90
20103;BMP180;10210;52.284;9.892;2023-12-14T01:31:43;99768.00;;;9.90
20103;BMP180;10210;52.284;9.892;2023-12-14T01:34:09;99753.00;;;9.90
20103;BMP180;10210;52.284;9.892;2023-12-14T01:36:37;99764.00;;;9.90
20103;BMP180;10210;52.284;9.892;2023-12-14T01:39:02;99768.00;;;9.90
20103;BMP180;10210;52.284;9.892;2023-12-14T01:41:28;99784.00;;;9.90
20103;BMP180;10210;52.284;9.892;2023-12-14T01:43:54;99791.00;;;9.90
20103;BMP180;10210;52.284;9.892;2023-12-14T01:46:21;99790.00;;;9.90
20103;BMP180;10210;52.284;9.892;2023-12-14T01:48:47;99790.00;;;9.90
20103;BMP180;10210;52.284;9.892;2023-12-14T01:51:12;99788.00;;;9.90
20103;BMP180;10210;52.284;9.892;2023-12-14T01:53:38;99777.00;;;9.80
20103;BMP180;10210;52.284;9.892;2023-12-14T01:56:04;99788.00;;;9.80
20103;BMP180;10210;52.284;9.892;2023-12-14T01:58:30;99788.00;;;9.80
20103;BMP180;10210;52.284;9.892;2023-12-14T02:03:52;99797.00;;;9.80
20103;BMP180;10210;52.284;9.892;2023-12-14T02:06:21;99808.00;;;9.80
20103;BMP180;10210;52.284;9.892;2023-12-14T02:08:47;99810.00;;;9.80
20103;BMP180;10210;52.284;9.892;2023-12-14T02:11:13;99823.00;;;9.80
20103;BMP180;10210;52.284;9.892;2023-12-14T02:13:38;99819.00;;;9.80
20103;BMP180;10210;52.284;9.892;2023-12-14T02:16:04;99825.00;;;9.80
20103;BMP180;10210;52.284;9.892;2023-12-14T02:18:30;99829.00;;;9.80
20103;BMP180;10210;52.284;9.892;2023-12-14T02:20:56;99831.00;;;9.80
20103;BMP180;10210;52.284;9.892;2023-12-14T02:23:22;99835.00;;;9.80
20103;BMP180;10210;52.284;9.892;2023-12-14T02:25:47;99841.00;;;9.80
20103;BMP180;10210;52.284;9.892;2023-12-14T02:28:13;99846.00;;;9.80
20103;BMP180;10210;52.284;9.892;2023-12-14T02:30:39;99850.00;;;9.80
20103;BMP180;10210;52.284;9.892;2023-12-14T02:33:04;99840.00;;;9.80
20103;BMP180;10210;52.284;9.892;2023-12-14T02:35:30;99847.00;;;9.70
20103;BMP180;10210;52.284;9.892;2023-12-14T02:37:56;99858.00;;;9.70
20103;BMP180;10210;52.284;9.892;2023-12-14T02:40:22;99850.00;;;9.70
20103;BMP180;10210;52.284;9.892;2023-12-14T02:42:47;99850.00;;;9.70
20103;BMP180;10210;52.284;9.892;2023-12-14T02:45:13;99855.00;;;9.70
20103;BMP180;10210;52.284;9.892;2023-12-14T02:47:39;99866.00;;;9.60
20103;BMP180;10210;52.284;9.892;2023-12-14T02:50:05;99868.00;;;9.60
20103;BMP180;10210;52.284;9.892;2023-12-14T02:52:31;99874.00;;;9.60
20103;BMP180;10210;52.284;9.892;2023-12-14T02:54:57;99881.00;;;9.60
20103;BMP180;10210;52.284;9.892;2023-12-14T02:57:22;99894.00;;;9.60
20103;BMP180;10210;52.284;9.892;2023-12-14T02:59:48;99885.00;;;9.60
20103;BMP180;10210;52.284;9.892;2023-12-14T03:02:14;99888.00;;;9.60
20103;BMP180;10210;52.284;9.892;2023-12-14T03:04:39;99896.00;;;9.60
20103;BMP180;10210;52.284;9.892;2023-12-14T03:07:05;99903.00;;;9.60
20103;BMP180;10210;52.284;9.892;2023-12-14T03:09:32;99904.00;;;9.70
20103;BMP180;10210;52.284;9.892;2023-12-14T03:12:00;99905.00;;;9.70
20103;BMP180;10210;52.284;9.892;2023-12-14T03:14:26;99899.00;;;9.70
20103;BMP180;10210;52.284;9.892;2023-12-14T03:16:51;99902.00;;;9.70
20103;BMP180;10210;52.284;9.892;2023-12-14T03:19:18;99900.00;;;9.70
20103;BMP180;10210;52.284;9.892;2023-12-14T03:21:43;99902.00;;;9.70
20103;BMP180;10210;52.284;9.892;2023-12-14T03:24:09;99911.00;;;9.70
20103;BMP180;10210;52.284;9.892;2023-12-14T03:26:35;99904.00;;;9.70
20103;BMP180;10210;52.284;9.892;2023-12-14T03:29:01;99911.00;;;9.70
20103;BMP180;10210;52.284;9.892;2023-12-14T03:31:27;99914.00;;;9.60
20103;BMP180;10210;52.284;9.892;2023-12-14T03:33:52;99913.00;;;9.60
20103;BMP180;10210;52.284;9.892;2023-12-14T03:36:18;99912.00;;;9.60
20103;BMP180;10210;52.284;9.892;2023-12-14T03:38:44;99915.00;;;9.60
20103;BMP180;10210;52.284;9.892;2023-12-14T03:41:10;99920.00;;;9.60
20103;BMP180;10210;52.284;9.892;2023-12-14T03:43:35;99924.00;;;9.60
20103;BMP180;10210;52.284;9.892;2023-12-14T03:46:01;99928.00;;;9.60
20103;BMP180;10210;52.284;9.892;2023-12-14T03:48:27;99937.00;;;9.60
20103;BMP180;10210;52.284;9.892;2023-12-14T03:50:52;99937.00;;;9.60
20103;BMP180;10210;52.284;9.892;2023-12-14T03:53:18;99926.00;;;9.60
20103;BMP180;10210;52.284;9.892;2023-12-14T03:55:43;99938.00;;;9.60
20103;BMP180;10210;52.284;9.892;2023-12-14T03:58:09;99946.00;;;9.60
20103;BMP180;10210;52.284;9.892;2023-12-14T04:00:35;99948.00;;;9.60
20103;BMP180;10210;52.284;9.892;2023-12-14T04:03:00;99941.00;;;9.60
20103;BMP180;10210;52.284;9.892;2023-12-14T04:05:26;99945.00;;;9.60
20103;BMP180;10210;52.284;9.892;2023-12-14T04:07:51;99952.00;;;9.60
20103;BMP180;10210;52.284;9.892;2023-12-14T04:10:17;99956.00;;;9.70
20103;BMP180;10210;52.284;9.892;2023-12-14T04:12:43;99955.00;;;9.70
20103;BMP180;10210;52.284;9.892;2023-12-14T04:15:10;99965.00;;;9.70
20103;BMP180;10210;52.284;9.892;2023-12-14T04:17:36;99969.00;;;9.70
20103;BMP180;10210;52.284;9.892;2023-12-14T04:20:02;99980.00;;;9.70
20103;BMP180;10210;52.284;9.892;2023-12-14T04:22:29;99985.00;;;9.60
20103;BMP180;10210;52.284;9.892;2023-12-14T04:24:55;99987.00;;;9.60
20103;BMP180;10210;52.284;9.892;2023-12-14T04:27:22;99989.00;;;9.60
20103;BMP180;10210;52.284;9.892;2023-12-14T04:29:52;100003.00;;;9.60
20103;BMP180;10210;52.284;9.892;2023-12-14T04:32:18;100012.00;;;9.60
20103;BMP180;10210;52.284;9.892;2023-12-14T04:34:43;100004.00;;;9.60
20103;BMP180;10210;52.284;9.892;2023-12-14T04:37:09;100006.00;;;9.60
20103;BMP180;10210;52.284;9.892;2023-12-14T04:39:34;100016.00;;;9.50
20103;BMP180;10210;52.284;9.892;2023-12-14T04:42:00;100017.00;;;9.50
20103;BMP180;10210;52.284;9.892;2023-12-14T04:44:26;100019.00;;;9.50
20103;BMP180;10210;52.284;9.892;2023-12-14T04:46:51;100022.00;;;9.50
20103;BMP180;10210;52.284;9.892;2023-12-14T04:49:18;100019.00;;;9.60
20103;BMP180;10210;52.284;9.892;2023-12-14T04:51:45;100028.00;;;9.60
20103;BMP180;10210;52.284;9.892;2023-12-14T04:54:10;100038.00;;;9.60
20103;BMP180;10210;52.284;9.892;2023-12-14T04:56:36;100046.00;;;9.60
20103;BMP180;10210;52.284;9.892;2023-12-14T04:59:02;100039.00;;;9.60
20103;BMP180;10210;52.284;9.892;2023-12-14T05:01:28;100038.00;;;9.60
20103;BMP180;10210;52.284;9.892;2023-12-14T05:03:54;100034.00;;;9.50
20103;BMP180;10210;52.284;9.892;2023-12-14T05:06:21;100047.00;;;9.50
20103;BMP180;10210;52.284;9.892;2023-12-14T05:08:47;100052.00;;;9.50
20103;BMP180;10210;52.284;9.892;2023-12-14T05:11:13;100064.00;;;9.50
20103;BMP180;10210;52.284;9.892;2023-12-14T05:13:42;100051.00;;;9.50
20103;BMP180;10210;52.284;9.892;2023-12-14T05:16:16;100058.00;;;9.50
20103;BMP180;10210;52.284;9.892;2023-12-14T05:18:42;100063.00;;;9.50
20103;BMP180;10210;52.284;9.892;2023-12-14T05:21:08;100069.00;;;9.50
20103;BMP180;10210;52.284;9.892;2023-12-14T05:23:34;100076.00;;;9.50
20103;BMP180;10210;52.284;9.892;2023-12-14T05:25:59;100075.00;;;9.50
20103;BMP180;10210;52.284;9.892;2023-12-14T05:28:25;100088.00;;;9.50
20103;BMP180;10210;52.284;9.892;2023-12-14T05:30:51;100077.00;;;9.50
20103;BMP180;10210;52.284;9.892;2023-12-14T05:33:17;100090.00;;;9.50
20103;BMP180;10210;52.284;9.892;2023-12-14T05:35:43;100097.00;;;9.50
20103;BMP180;10210;52.284;9.892;2023-12-14T05:38:08;100102.00;;;9.50
20103;BMP180;10210;52.284;9.892;2023-12-14T05:40:34;100102.00;;;9.50
20103;BMP180;10210;52.284;9.892;2023-12-14T05:43:00;100100.00;;;9.50
20103;BMP180;10210;52.284;9.892;2023-12-14T05:45:25;100107.00;;;9.50
20103;BMP180;10210;52.284;9.892;2023-12-14T05:47:51;100110.00;;;9.50
20103;BMP180;10210;52.284;9.892;2023-12-14T05:50:17;100114.00;;;9.50
20103;BMP180;10210;52.284;9.892;2023-12-14T05:52:42;100112.00;;;9.50
20103;BMP180;10210;52.284;9.892;2023-12-14T05:55:09;100100.00;;;9.50
20103;BMP180;10210;52.284;9.892;2023-12-14T05:57:38;100118.00;;;9.50
20103;BMP180;10210;52.284;9.892;2023-12-14T06:00:07;100117.00;;;9.50
20103;BMP180;10210;52.284;9.892;2023-12-14T06:02:33;100130.00;;;9.50
20103;BMP180;10210;52.284;9.892;2023-12-14T06:04:59;100140.00;;;9.50
20103;BMP180;10210;52.284;9.892;2023-12-14T06:07:25;100144.00;;;9.50
20103;BMP180;10210;52.284;9.892;2023-12-14T06:09:51;100150.00;;;9.40
20103;BMP180;10210;52.284;9.892;2023-12-14T06:12:16;100147.00;;;9.40
20103;BMP180;10210;52.284;9.892;2023-12-14T06:14:42;100155.00;;;9.40
20103;BMP180;10210;52.284;9.892;2023-12-14T06:17:08;100157.00;;;9.40
20103;BMP180;10210;52.284;9.892;2023-12-14T06:19:33;100159.00;;;9.40
20103;BMP180;10210;52.284;9.892;2023-12-14T06:21:59;100148.00;;;9.40
20103;BMP180;10210;52.284;9.892;2023-12-14T06:24:25;100154.00;;;9.40
20103;BMP180;10210;52.284;9.892;2023-12-14T06:26:50;100148.00;;;9.40
20103;BMP180;10210;52.284;9.892;2023-12-14T06:29:16;100150.00;;;9.40
20103;BMP180;10210;52.284;9.892;2023-12-14T06:31:42;100155.00;;;9.40
20103;BMP180;10210;52.284;9.892;2023-12-14T06:34:07;100155.00;;;9.40
20103;BMP180;10210;52.284;9.892;2023-12-14T06:36:34;100161.00;;;9.40
20103;BMP180;10210;52.284;9.892;2023-12-14T06:39:01;100167.00;;;9.40
20103;BMP180;10210;52.284;9.892;2023-12-14T06:41:28;100176.00;;;9.40
20103;BMP180;10210;52.284;9.892;2023-12-14T06:43:54;100178.00;;;9.40
20103;BMP180;10210;52.284;9.892;2023-12-14T06:46:22;100187.00;;;9.40
20103;BMP180;10210;52.284;9.892;2023-12-14T06:48:49;100193.00;;;9.40
20103;BMP180;10210;52.284;9.892;2023-12-14T06:51:15;100180.00;;;9.40
20103;BMP180;10210;52.284;9.892;2023-12-14T06:53:42;100190.00;;;9.40
20103;BMP180;10210;52.284;9.892;2023-12-14T06:56:09;100197.00;;;9.40
20103;BMP180;10210;52.284;9.892;2023-12-14T06:58:38;100196.00;;;9.40
20103;BMP180;10210;52.284;9.892;2023-12-14T07:01:03;100204.00;;;9.40
20103;BMP180;10210;52.284;9.892;2023-12-14T07:03:30;100211.00;;;9.40
20103;BMP180;10210;52.284;9.892;2023-12-14T07:05:55;100212.00;;;9.40
20103;BMP180;10210;52.284;9.892;2023-12-14T07:08:21;100228.00;;;9.40
20103;BMP180;10210;52.284;9.892;2023-12-14T07:10:47;100220.00;;;9.40
20103;BMP180;10210;52.284;9.892;2023-12-14T07:13:13;100224.00;;;9.40
20103;BMP180;10210;52.284;9.892;2023-12-14T07:15:38;100236.00;;;9.40
20103;BMP180;10210;52.284;9.892;2023-12-14T07:18:04;100230.00;;;9.40
20103;BMP180;10210;52.284;9.892;2023-12-14T07:20:30;100241.00;;;9.40
20103;BMP180;10210;52.284;9.892;2023-12-14T07:22:55;100243.00;;;9.40
20103;BMP180;10210;52.284;9.892;2023-12-14T07:25:21;100249.00;;;9.40
20103;BMP180;10210;52.284;9.892;2023-12-14T07:27:47;100236.00;;;9.40
20103;BMP180;10210;52.284;9.892;2023-12-14T07:30:13;100246.00;;;9.40
20103;BMP180;10210;52.284;9.892;2023-12-14T07:32:39;100260.00;;;9.40
20103;BMP180;10210;52.284;9.892;2023-12-14T07:35:06;100269.00;;;9.40
20103;BMP180;10210;52.284;9.892;2023-12-14T07:37:32;100279.00;;;9.40
20103;BMP180;10210;52.284;9.892;2023-12-14T07:39:57;100281.00;;;9.40
20103;BMP180;10210;52.284;9.892;2023-12-14T07:42:24;100290.00;;;9.40
20103;BMP180;10210;52.284;9.892;2023-12-14T07:44:51;100288.00;;;9.50
20103;BMP180;10210;52.284;9.892;2023-12-14T07:47:16;100288.00;;;9.50
20103;BMP180;10210;52.284;9.892;2023-12-14T07:49:42;100302.00;;;9.40
20103;BMP180;10210;52.284;9.892;2023-12-14T07:52:08;100302.00;;;9.40
20103;BMP180;10210;52.284;9.892;2023-12-14T07:54:35;100318.00;;;9.40
20103;BMP180;10210;52.284;9.892;2023-12-14T07:57:01;100310.00;;;9.40
20103;BMP180;10210;52.284;9.892;2023-12-14T07:59:26;100320.00;;;9.40
20103;BMP180;10210;52.284;9.892;2023-12-14T08:01:52;100335.00;;;9.40
20103;BMP180;10210;52.284;9.892;2023-12-14T08:04:18;100326.00;;;9.40
20103;BMP180;10210;52.284;9.892;2023-12-14T08:06:43;100336.00;;;9.40
20103;BMP180;10210;52.284;9.892;2023-12-14T08:09:09;100343.00;;;9.40
20103;BMP180;10210;52.284;9.892;2023-12-14T08:11:35;100346.00;;;9.40
20103;BMP180;10210;52.284;9.892;2023-12-14T08:14:01;100340.00;;;9.40
20103;BMP180;10210;52.284;9.892;2023-12-14T08:16:27;100352.00;;;9.40
20103;BMP180;10210;52.284;9.892;2023-12-14T08:18:54;100361.00;;;9.30
20103;BMP180;10210;52.284;9.892;2023-12-14T08:21:21;100361.00;;;9.30
20103;BMP180;10210;52.284;9.892;2023-12-14T08:23:47;100368.00;;;9.30
20103;BMP180;10210;52.284;9.892;2023-12-14T08:26:13;100363.00;;;9.30
20103;BMP180;10210;52.284;9.892;2023-12-14T08:28:39;100376.00;;;9.30
20103;BMP180;10210;52.284;9.892;2023-12-14T08:31:05;100374.00;;;9.30
20103;BMP180;10210;52.284;9.892;2023-12-14T08:33:31;100376.00;;;9.30
20103;BMP180;10210;52.284;9.892;2023-12-14T08:35:57;100385.00;;;9.30
20103;BMP180;10210;52.284;9.892;2023-12-14T08:38:23;100383.00;;;9.30
20103;BMP180;10210;52.284;9.892;2023-12-14T08:40:49;100396.00;;;9.30
20103;BMP180;10210;52.284;9.892;2023-12-14T08:43:14;100394.00;;;9.30
20103;BMP180;10210;52.284;9.892;2023-12-14T08:45:40;100400.00;;;9.30
20103;BMP180;10210;52.284;9.892;2023-12-14T08:48:06;100400.00;;;9.30
20103;BMP180;10210;52.284;9.892;2023-12-14T08:50:32;100407.00;;;9.30
20103;BMP180;10210;52.284;9.892;2023-12-14T08:52:58;100411.00;;;9.30
20103;BMP180;10210;52.284;9.892;2023-12-14T08:55:25;100416.00;;;9.30
20103;BMP180;10210;52.284;9.892;2023-12-14T08:57:51;100425.00;;;9.30
20103;BMP180;10210;52.284;9.892;2023-12-14T09:00:17;100429.00;;;9.20
20103;BMP180;10210;52.284;9.892;2023-12-14T09:02:46;100435.00;;;9.20
20103;BMP180;10210;52.284;9.892;2023-12-14T09:05:13;100439.00;;;9.30
20103;BMP180;10210;52.284;9.892;2023-12-14T09:07:40;100458.00;;;9.30
20103;BMP180;10210;52.284;9.892;2023-12-14T09:10:06;100466.00;;;9.30
20103;BMP180;10210;52.284;9.892;2023-12-14T09:12:33;100460.00;;;9.30
20103;BMP180;10210;52.284;9.892;2023-12-14T09:15:00;100468.00;;;9.30
20103;BMP180;10210;52.284;9.892;2023-12-14T09:17:26;100475.00;;;9.30
20103;BMP180;10210;52.284;9.892;2023-12-14T09:19:58;100476.00;;;9.30
20103;BMP180;10210;52.284;9.892;2023-12-14T09:22:25;100474.00;;;9.30
20103;BMP180;10210;52.284;9.892;2023-12-14T09:24:50;100481.00;;;9.30
20103;BMP180;10210;52.284;9.892;2023-12-14T09:27:17;100479.00;;;9.30
20103;BMP180;10210;52.284;9.892;2023-12-14T09:29:42;100489.00;;;9.30
20103;BMP180;10210;52.284;9.892;2023-12-14T09:32:08;100492.00;;;9.30
20103;BMP180;10210;52.284;9.892;2023-12-14T09:34:34;100495.00;;;9.20
20103;BMP180;10210;52.284;9.892;2023-12-14T09:37:00;100504.00;;;9.20
20103;BMP180;10210;52.284;9.892;2023-12-14T09:39:26;100508.00;;;9.20
20103;BMP180;10210;52.284;9.892;2023-12-14T09:42:05;100507.00;;;9.20
20103;BMP180;10210;52.284;9.892;2023-12-14T09:44:32;100504.00;;;9.20
20103;BMP180;10210;52.284;9.892;2023-12-14T09:46:59;100511.00;;;9.30
20103;BMP180;10210;52.284;9.892;2023-12-14T09:49:30;100509.00;;;9.30
20103;BMP180;10210;52.284;9.892;2023-12-14T09:51:56;100515.00;;;9.30
20103;BMP180;10210;52.284;9.892;2023-12-14T09:54:23;100510.00;;;9.30
20103;BMP180;10210;52.284;9.892;2023-12-14T09:56:49;100515.00;;;9.40
20103;BMP180;10210;52.284;9.892;2023-12-14T09:59:15;100509.00;;;9.40
20103;BMP180;10210;52.284;9.892;2023-12-14T10:01:42;100518.00;;;9.40
20103;BMP180;10210;52.284;9.892;2023-12-14T10:04:12;100509.00;;;9.40
20103;BMP180;10210;52.284;9.892;2023-12-14T10:06:40;100524.00;;;9.40
20103;BMP180;10210;52.284;9.892;2023-12-14T10:09:07;100531.00;;;9.40
20103;BMP180;10210;52.284;9.892;2023-12-14T10:11:39;100534.00;;;9.30
20103;BMP180;10210;52.284;9.892;2023-12-14T10:14:23;100530.00;;;9.20
20103;BMP180;10210;52.284;9.892;2023-12-14T10:16:51;100537.00;;;9.20
20103;BMP180;10210;52.284;9.892;2023-12-14T10:19:22;100533.00;;;9.20
20103;BMP180;10210;52.284;9.892;2023-12-14T10:21:49;100541.00;;;9.20
20103;BMP180;10210;52.284;9.892;2023-12-14T10:24:16;100546.00;;;9.20
20103;BMP180;10210;52.284;9.892;2023-12-14T10:26:44;100545.00;;;9.20
20103;BMP180;10210;52.284;9.892;2023-12-14T10:29:10;100547.00;;;9.20
20103;BMP180;10210;52.284;9.892;2023-12-14T10:31:37;100562.00;;;9.10
20103;BMP180;10210;52.284;9.892;2023-12-14T10:34:06;100562.00;;;9.10
20103;BMP180;10210;52.284;9.892;2023-12-14T10:36:33;100562.00;;;9.10
20103;BMP180;10210;52.284;9.892;2023-12-14T10:39:00;100565.00;;;9.10
20103;BMP180;10210;52.284;9.892;2023-12-14T10:41:27;100570.00;;;9.00
20103;BMP180;10210;52.284;9.892;2023-12-14T10:43:56;100574.00;;;9.00
20103;BMP180;10210;52.284;9.892;2023-12-14T10:46:23;100574.00;;;9.00
20103;BMP180;10210;52.284;9.892;2023-12-14T10:48:53;100581.00;;;9.00
20103;BMP180;10210;52.284;9.892;2023-12-14T10:51:23;100583.00;;;9.00
20103;BMP180;10210;52.284;9.892;2023-12-14T10:53:52;100597.00;;;9.00
20103;BMP180;10210;52.284;9.892;2023-12-14T10:56:19;100588.00;;;9.00
20103;BMP180;10210;52.284;9.892;2023-12-14T10:58:55;100598.00;;;9.00
20103;BMP180;10210;52.284;9.892;2023-12-14T11:01:23;100587.00;;;9.00
20103;BMP180;10210;52.284;9.892;2023-12-14T11:03:54;100595.00;;;9.10
20103;BMP180;10210;52.284;9.892;2023-12-14T11:06:36;100605.00;;;9.10
20103;BMP180;10210;52.284;9.892;2023-12-14T11:09:08;100597.00;;;9.10
20103;BMP180;10210;52.284;9.892;2023-12-14T11:14:20;100594.00;;;9.20
20103;BMP180;10210;52.284;9.892;2023-12-14T11:16:48;100606.00;;;9.20
20103;BMP180;10210;52.284;9.892;2023-12-14T11:19:25;100604.00;;;9.20
20103;BMP180;10210;52.284;9.892;2023-12-14T11:24:23;100616.00;;;9.20
20103;BMP180;10210;52.284;9.892;2023-12-14T11:26:50;100620.00;;;9.20
20103;BMP180;10210;52.284;9.892;2023-12-14T11:29:17;100626.00;;;9.20
20103;BMP180;10210;52.284;9.892;2023-12-14T11:31:43;100622.00;;;9.20
20103;BMP180;10210;52.284;9.892;2023-12-14T11:34:09;100637.00;;;9.20
20103;BMP180;10210;52.284;9.892;2023-12-14T11:36:34;100629.00;;;9.20
20103;BMP180;10210;52.284;9.892;2023-12-14T11:39:02;100638.00;;;9.20
20103;BMP180;10210;52.284;9.892;2023-12-14T11:41:29;100637.00;;;9.20
20103;BMP180;10210;52.284;9.892;2023-12-14T11:43:56;100637.00;;;9.20
20103;BMP180;10210;52.284;9.892;2023-12-14T11:46:22;100634.00;;;9.20
20103;BMP180;10210;52.284;9.892;2023-12-14T11:48:48;100651.00;;;9.20
20103;BMP180;10210;52.284;9.892;2023-12-14T11:51:17;100654.00;;;9.30
20103;BMP180;10210;52.284;9.892;2023-12-14T11:53:47;100645.00;;;9.30
20103;BMP180;10210;52.284;9.892;2023-12-14T11:56:18;100653.00;;;9.30
20103;BMP180;10210;52.284;9.892;2023-12-14T11:58:44;100652.00;;;9.30
20103;BMP180;10210;52.284;9.892;2023-12-14T12:01:15;100653.00;;;9.40
20103;BMP180;10210;52.284;9.892;2023-12-14T12:03:42;100653.00;;;9.40
20103;BMP180;10210;52.284;9.892;2023-12-14T12:06:27;100654.00;;;9.30
20103;BMP180;10210;52.284;9.892;2023-12-14T12:08:58;100652.00;;;9.30
20103;BMP180;10210;52.284;9.892;2023-12-14T12:11:24;100655.00;;;9.30
20103;BMP180;10210;52.284;9.892;2023-12-14T12:13:57;100663.00;;;9.30
20103;BMP180;10210;52.284;9.892;2023-12-14T12:16:23;100655.00;;;9.20
20103;BMP180;10210;52.284;9.892;2023-12-14T12:18:50;100660.00;;;9.20
20103;BMP180;10210;52.284;9.892;2023-12-14T12:21:16;100653.00;;;9.20
20103;BMP180;10210;52.284;9.892;2023-12-14T12:23:42;100660.00;;;9.20
20103;BMP180;10210;52.284;9.892;2023-12-14T12:26:08;100668.00;;;9.70
20103;BMP180;10210;52.284;9.892;2023-12-14T12:28:34;100664.00;;;9.50
20103;BMP180;10210;52.284;9.892;2023-12-14T12:31:00;100673.00;;;9.40
20103;BMP180;10210;52.284;9.892;2023-12-14T12:33:26;100677.00;;;9.30
20103;BMP180;10210;52.284;9.892;2023-12-14T12:35:52;100679.00;;;9.30
20103;BMP180;10210;52.284;9.892;2023-12-14T12:38:18;100675.00;;;9.30
20103;BMP180;10210;52.284;9.892;2023-12-14T12:40:47;100674.00;;;9.20
20103;BMP180;10210;52.284;9.892;2023-12-14T12:43:13;100678.00;;;9.20
20103;BMP180;10210;52.284;9.892;2023-12-14T12:45:40;100684.00;;;9.20
20103;BMP180;10210;52.284;9.892;2023-12-14T12:48:06;100686.00;;;9.20
20103;BMP180;10210;52.284;9.892;2023-12-14T12:50:33;100696.00;;;9.20
20103;BMP180;10210;52.284;9.892;2023-12-14T12:52:58;100683.00;;;9.20
20103;BMP180;10210;52.284;9.892;2023-12-14T12:55:24;100699.00;;;9.20
20103;BMP180;10210;52.284;9.892;2023-12-14T12:57:51;100690.00;;;9.10
20103;BMP180;10210;52.284;9.892;2023-12-14T13:00:17;100693.00;;;9.10
20103;BMP180;10210;52.284;9.892;2023-12-14T13:02:44;100697.00;;;9.10
20103;BMP180;10210;52.284;9.892;2023-12-14T13:05:11;100696.00;;;9.10
20103;BMP180;10210;52.284;9.892;2023-12-14T13:07:37;100697.00;;;9.10
20103;BMP180;10210;52.284;9.892;2023-12-14T13:10:24;100701.00;;;9.10
20103;BMP180;10210;52.284;9.892;2023-12-14T13:12:53;100711.00;;;9.10
20103;BMP180;10210;52.284;9.892;2023-12-14T13:15:19;100702.00;;;9.10
20103;BMP180;10210;52.284;9.892;2023-12-14T13:17:44;100701.00;;;9.10
20103;BMP180;10210;52.284;9.892;2023-12-14T13:20:10;100712.00;;;9.10
20103;BMP180;10210;52.284;9.892;2023-12-14T13:22:36;100709.00;;;9.10
20103;BMP180;10210;52.284;9.892;2023-12-14T13:25:01;100715.00;;;9.10
20103;BMP180;10210;52.284;9.892;2023-12-14T13:27:28;100714.00;;;9.10
20103;BMP180;10210;52.284;9.892;2023-12-14T13:29:55;100721.00;;;9.10
20103;BMP180;10210;52.284;9.892;2023-12-14T13:32:21;100720.00;;;9.10
20103;BMP180;10210;52.284;9.892;2023-12-14T13:34:47;100725.00;;;9.10
20103;BMP180;10210;52.284;9.892;2023-12-14T13:37:13;100720.00;;;9.10
20103;BMP180;10210;52.284;9.892;2023-12-14T13:39:38;100723.00;;;9.10
20103;BMP180;10210;52.284;9.892;2023-12-14T13:42:05;100729.00;;;9.10
20103;BMP180;10210;52.284;9.892;2023-12-14T13:44:34;100736.00;;;9.10
20103;BMP180;10210;52.284;9.892;2023-12-14T13:47:02;100734.00;;;9.10
20103;BMP180;10210;52.284;9.892;2023-12-14T13:49:28;100742.00;;;9.10
20103;BMP180;10210;52.284;9.892;2023-12-14T13:51:54;100746.00;;;9.10
20103;BMP180;10210;52.284;9.892;2023-12-14T13:54:19;100751.00;;;9.10
20103;BMP180;10210;52.284;9.892;2023-12-14T13:56:45;100756.00;;;9.20
20103;BMP180;10210;52.284;9.892;2023-12-14T13:59:11;100766.00;;;9.20
20103;BMP180;10210;52.284;9.892;2023-12-14T14:01:36;100763.00;;;9.20
20103;BMP180;10210;52.284;9.892;2023-12-14T14:04:03;100773.00;;;9.20
20103;BMP180;10210;52.284;9.892;2023-12-14T14:06:29;100769.00;;;9.20
20103;BMP180;10210;52.284;9.892;2023-12-14T14:08:55;100774.00;;;9.20
20103;BMP180;10210;52.284;9.892;2023-12-14T14:11:22;100779.00;;;9.20
20103;BMP180;10210;52.284;9.892;2023-12-14T14:13:48;100783.00;;;9.20
20103;BMP180;10210;52.284;9.892;2023-12-14T14:16:14;100790.00;;;9.20